sensor_id;sensor_type;location;lat;lon;timestamp;temperature;humidity
2489;DHT22;1255;48.716;9.124;2023-12-28T00:01:38;7.80;97.50
2489;DHT22;1255;48.716;9.124;2023-12-28T00:04:04;7.70;97.50
2489;DHT22;1255;48.716;9.124;2023-12-28T00:06:31;7.80;97.30
2489;DHT22;1255;48.716;9.124;2023-12-28T00:08:58;7.80;97.40
2489;DHT22;1255;48.716;9.124;2023-12-28T00:11:26;7.80;97.40
2489;DHT22;1255;48.716;9.124;2023-12-28T00:13:54;7.70;97.40
2489;DHT22;1255;48.716;9.124;2023-12-28T04:33:29;7.80;98.60
2489;DHT22;1255;48.716;9.124;2023-12-28T04:35:56;7.90;98.60
2489;DHT22;1255;48.716;9.124;2023-12-28T04:38:23;7.90;98.60
2489;DHT22;1255;48.716;9.124;2023-12-28T04:40:50;7.90;98.60
2489;DHT22;1255;48.716;9.124;2023-12-28T04:43:16;8.00;98.40
2489;DHT22;1255;48.716;9.124;2023-12-28T04:45:44;8.00;98.60
2489;DHT22;1255;48.716;9.124;2023-12-28T04:48:10;8.00;98.50
2489;DHT22;1255;48.716;9.124;2023-12-28T04:50:38;8.00;98.60
2489;DHT22;1255;48.716;9.124;2023-12-28T04:53:05;8.10;98.40
2489;DHT22;1255;48.716;9.124;2023-12-28T04:55:32;8.10;98.60
2489;DHT22;1255;48.716;9.124;2023-12-28T04:57:58;8.10;98.40
2489;DHT22;1255;48.716;9.124;2023-12-28T05:00:25;8.20;98.60
2489;DHT22;1255;48.716;9.124;2023-12-28T05:02:52;8.10;98.50
2489;DHT22;1255;48.716;9.124;2023-12-28T05:05:19;8.10;98.60
2489;DHT22;1255;48.716;9.124;2023-12-28T05:07:47;8.10;98.60
2489;DHT22;1255;48.716;9.124;2023-12-28T05:10:14;8.10;98.60
2489;DHT22;1255;48.716;9.124;2023-12-28T05:12:40;8.20;98.60
2489;DHT22;1255;48.716;9.124;2023-12-28T05:15:08;8.20;98.60
2489;DHT22;1255;48.716;9.124;2023-12-28T05:17:35;8.30;98.70
2489;DHT22;1255;48.716;9.124;2023-12-28T05:20:01;8.30;98.90
2489;DHT22;1255;48.716;9.124;2023-12-28T05:22:28;8.30;99.00
2489;DHT22;1255;48.716;9.124;2023-12-28T05:24:56;8.30;99.00
2489;DHT22;1255;48.716;9.124;2023-12-28T05:27:23;8.40;99.10
2489;DHT22;1255;48.716;9.124;2023-12-28T05:29:50;8.40;99.10
2489;DHT22;1255;48.716;9.124;2023-12-28T05:32:16;8.40;99.10
2489;DHT22;1255;48.716;9.124;2023-12-28T05:34:43;8.50;98.90
2489;DHT22;1255;48.716;9.124;2023-12-28T05:37:10;8.60;99.00
2489;DHT22;1255;48.716;9.124;2023-12-28T05:39:36;8.60;99.00
2489;DHT22;1255;48.716;9.124;2023-12-28T05:42:05;8.70;98.90
2489;DHT22;1255;48.716;9.124;2023-12-28T05:44:31;8.80;99.20
2489;DHT22;1255;48.716;9.124;2023-12-28T05:46:58;8.80;99.00
2489;DHT22;1255;48.716;9.124;2023-12-28T05:49:25;8.80;99.10
2489;DHT22;1255;48.716;9.124;2023-12-28T05:51:54;8.70;99.10
2489;DHT22;1255;48.716;9.124;2023-12-28T05:54:20;8.70;99.30
2489;DHT22;1255;48.716;9.124;2023-12-28T05:56:47;8.70;99.30
2489;DHT22;1255;48.716;9.124;2023-12-28T05:59:15;8.70;99.50
2489;DHT22;1255;48.716;9.124;2023-12-28T06:01:43;8.60;99.60
2489;DHT22;1255;48.716;9.124;2023-12-28T06:04:10;8.70;99.70
2489;DHT22;1255;48.716;9.124;2023-12-28T06:06:36;8.70;99.90
2489;DHT22;1255;48.716;9.124;2023-12-28T06:09:03;8.70;99.90
2489;DHT22;1255;48.716;9.124;2023-12-28T06:11:30;8.70;99.90
2489;DHT22;1255;48.716;9.124;2023-12-28T06:13:57;8.60;99.90
2489;DHT22;1255;48.716;9.124;2023-12-28T06:16:25;8.60;99.90
2489;DHT22;1255;48.716;9.124;2023-12-28T06:18:51;8.60;99.90
2489;DHT22;1255;48.716;9.124;2023-12-28T06:21:18;8.60;99.90
2489;DHT22;1255;48.716;9.124;2023-12-28T06:23:45;8.70;99.90
2489;DHT22;1255;48.716;9.124;2023-12-28T06:26:12;8.70;99.90
2489;DHT22;1255;48.716;9.124;2023-12-28T06:28:38;8.70;99.90
2489;DHT22;1255;48.716;9.124;2023-12-28T06:31:05;8.70;99.90
2489;DHT22;1255;48.716;9.124;2023-12-28T06:33:33;8.70;99.90
2489;DHT22;1255;48.716;9.124;2023-12-28T06:36:05;8.70;99.90
2489;DHT22;1255;48.716;9.124;2023-12-28T06:38:31;8.70;99.90
2489;DHT22;1255;48.716;9.124;2023-12-28T06:40:58;8.80;99.90
2489;DHT22;1255;48.716;9.124;2023-12-28T06:43:25;8.80;99.90
2489;DHT22;1255;48.716;9.124;2023-12-28T06:45:52;8.80;99.90
2489;DHT22;1255;48.716;9.124;2023-12-28T06:48:18;8.80;99.90
2489;DHT22;1255;48.716;9.124;2023-12-28T06:50:46;8.90;99.90
2489;DHT22;1255;48.716;9.124;2023-12-28T06:53:13;8.90;99.90
2489;DHT22;1255;48.716;9.124;2023-12-28T06:55:40;8.90;99.90
2489;DHT22;1255;48.716;9.124;2023-12-28T06:58:06;9.00;99.90
2489;DHT22;1255;48.716;9.124;2023-12-28T07:00:33;9.00;99.90
2489;DHT22;1255;48.716;9.124;2023-12-28T07:03:00;9.00;99.90
2489;DHT22;1255;48.716;9.124;2023-12-28T07:05:27;9.00;99.90
2489;DHT22;1255;48.716;9.124;2023-12-28T07:07:55;9.10;99.90
2489;DHT22;1255;48.716;9.124;2023-12-28T07:10:21;9.10;99.90
2489;DHT22;1255;48.716;9.124;2023-12-28T07:12:48;9.10;99.90
2489;DHT22;1255;48.716;9.124;2023-12-28T07:15:15;9.10;99.90
2489;DHT22;1255;48.716;9.124;2023-12-28T07:17:42;9.20;99.90
2489;DHT22;1255;48.716;9.124;2023-12-28T07:20:09;9.20;99.90
2489;DHT22;1255;48.716;9.124;2023-12-28T07:22:36;9.20;99.90
2489;DHT22;1255;48.716;9.124;2023-12-28T07:25:05;9.20;99.90
2489;DHT22;1255;48.716;9.124;2023-12-28T07:27:32;9.20;99.90
2489;DHT22;1255;48.716;9.124;2023-12-28T07:29:59;9.20;99.90
2489;DHT22;1255;48.716;9.124;2023-12-28T07:32:26;9.20;99.90
2489;DHT22;1255;48.716;9.124;2023-12-28T07:34:55;9.30;99.90
2489;DHT22;1255;48.716;9.124;2023-12-28T07:37:21;9.20;99.90
2489;DHT22;1255;48.716;9.124;2023-12-28T07:39:48;9.20;99.90
2489;DHT22;1255;48.716;9.124;2023-12-28T07:42:16;9.20;99.90
2489;DHT22;1255;48.716;9.124;2023-12-28T07:44:43;9.20;99.90
2489;DHT22;1255;48.716;9.124;2023-12-28T07:47:10;9.20;99.90
2489;DHT22;1255;48.716;9.124;2023-12-28T07:49:37;9.20;99.90
2489;DHT22;1255;48.716;9.124;2023-12-28T07:52:04;9.20;99.90
2489;DHT22;1255;48.716;9.124;2023-12-28T07:54:31;9.10;99.90
2489;DHT22;1255;48.716;9.124;2023-12-28T07:56:59;9.00;99.90
2489;DHT22;1255;48.716;9.124;2023-12-28T07:59:27;9.00;99.90
2489;DHT22;1255;48.716;9.124;2023-12-28T08:01:54;8.90;99.90
2489;DHT22;1255;48.716;9.124;2023-12-28T08:04:21;8.90;99.90
2489;DHT22;1255;48.716;9.124;2023-12-28T08:06:48;8.90;99.90
2489;DHT22;1255;48.716;9.124;2023-12-28T08:09:14;8.90;99.90
2489;DHT22;1255;48.716;9.124;2023-12-28T08:11:41;8.90;99.90
2489;DHT22;1255;48.716;9.124;2023-12-28T08:14:08;8.80;99.90
2489;DHT22;1255;48.716;9.124;2023-12-28T08:16:36;8.80;99.90
2489;DHT22;1255;48.716;9.124;2023-12-28T08:19:03;8.70;99.90
2489;DHT22;1255;48.716;9.124;2023-12-28T08:21:30;8.60;99.90
2489;DHT22;1255;48.716;9.124;2023-12-28T08:23:56;8.60;99.90
2489;DHT22;1255;48.716;9.124;2023-12-28T08:26:23;8.60;99.90
2489;DHT22;1255;48.716;9.124;2023-12-28T08:28:50;8.70;99.90
2489;DHT22;1255;48.716;9.124;2023-12-28T08:31:17;8.70;99.90
2489;DHT22;1255;48.716;9.124;2023-12-28T08:33:47;8.70;99.90
2489;DHT22;1255;48.716;9.124;2023-12-28T08:36:14;8.70;99.90
2489;DHT22;1255;48.716;9.124;2023-12-28T08:38:42;8.80;99.90
2489;DHT22;1255;48.716;9.124;2023-12-28T08:41:17;8.80;99.90
2489;DHT22;1255;48.716;9.124;2023-12-28T08:43:44;8.90;99.90
2489;DHT22;1255;48.716;9.124;2023-12-28T08:46:11;9.00;99.90
2489;DHT22;1255;48.716;9.124;2023-12-28T08:48:39;9.10;99.90
2489;DHT22;1255;48.716;9.124;2023-12-28T08:51:08;9.20;99.90
2489;DHT22;1255;48.716;9.124;2023-12-28T08:53:35;9.30;99.90
2489;DHT22;1255;48.716;9.124;2023-12-28T08:56:02;9.40;99.90
2489;DHT22;1255;48.716;9.124;2023-12-28T08:58:29;9.50;99.90
2489;DHT22;1255;48.716;9.124;2023-12-28T09:01:00;9.60;99.90
2489;DHT22;1255;48.716;9.124;2023-12-28T09:03:35;9.70;99.90
2489;DHT22;1255;48.716;9.124;2023-12-28T09:06:09;9.80;99.90
2489;DHT22;1255;48.716;9.124;2023-12-28T09:08:56;9.80;99.90
2489;DHT22;1255;48.716;9.124;2023-12-28T09:11:31;9.90;99.90
2489;DHT22;1255;48.716;9.124;2023-12-28T09:13:58;9.90;99.90
2489;DHT22;1255;48.716;9.124;2023-12-28T09:16:25;10.00;99.90
2489;DHT22;1255;48.716;9.124;2023-12-28T09:18:51;10.00;99.90
2489;DHT22;1255;48.716;9.124;2023-12-28T09:21:20;10.00;99.90
2489;DHT22;1255;48.716;9.124;2023-12-28T09:23:47;10.00;99.90
2489;DHT22;1255;48.716;9.124;2023-12-28T09:26:14;10.10;99.90
2489;DHT22;1255;48.716;9.124;2023-12-28T09:28:40;10.10;99.90
2489;DHT22;1255;48.716;9.124;2023-12-28T09:31:07;10.10;99.90
2489;DHT22;1255;48.716;9.124;2023-12-28T09:33:34;10.20;99.90
2489;DHT22;1255;48.716;9.124;2023-12-28T09:36:03;10.20;99.90
2489;DHT22;1255;48.716;9.124;2023-12-28T09:38:31;10.20;99.90
2489;DHT22;1255;48.716;9.124;2023-12-28T09:41:01;10.30;99.90
2489;DHT22;1255;48.716;9.124;2023-12-28T09:43:33;10.40;99.90
2489;DHT22;1255;48.716;9.124;2023-12-28T09:46:06;10.40;99.90
2489;DHT22;1255;48.716;9.124;2023-12-28T09:48:37;10.40;99.90
2489;DHT22;1255;48.716;9.124;2023-12-28T09:51:04;10.50;99.90
2489;DHT22;1255;48.716;9.124;2023-12-28T09:53:32;10.40;99.90
2489;DHT22;1255;48.716;9.124;2023-12-28T09:55:59;10.50;99.90
2489;DHT22;1255;48.716;9.124;2023-12-28T09:58:27;10.50;99.90
2489;DHT22;1255;48.716;9.124;2023-12-28T10:00:56;10.50;99.90
2489;DHT22;1255;48.716;9.124;2023-12-28T10:03:23;10.40;99.90
2489;DHT22;1255;48.716;9.124;2023-12-28T10:05:50;10.50;99.90
2489;DHT22;1255;48.716;9.124;2023-12-28T10:08:17;10.50;99.90
2489;DHT22;1255;48.716;9.124;2023-12-28T10:10:46;10.50;99.90
2489;DHT22;1255;48.716;9.124;2023-12-28T10:13:17;10.50;99.90
2489;DHT22;1255;48.716;9.124;2023-12-28T10:15:44;10.50;99.90
2489;DHT22;1255;48.716;9.124;2023-12-28T10:18:11;10.60;99.90
2489;DHT22;1255;48.716;9.124;2023-12-28T10:20:38;10.50;99.90
2489;DHT22;1255;48.716;9.124;2023-12-28T10:23:05;10.50;99.90
2489;DHT22;1255;48.716;9.124;2023-12-28T10:25:32;10.40;99.90
2489;DHT22;1255;48.716;9.124;2023-12-28T10:28:04;10.50;99.90
2489;DHT22;1255;48.716;9.124;2023-12-28T10:30:31;10.40;99.90
2489;DHT22;1255;48.716;9.124;2023-12-28T10:32:58;10.40;99.90
2489;DHT22;1255;48.716;9.124;2023-12-28T10:35:25;10.50;99.90
2489;DHT22;1255;48.716;9.124;2023-12-28T10:37:53;10.40;99.90
2489;DHT22;1255;48.716;9.124;2023-12-28T10:40:21;10.50;99.90
2489;DHT22;1255;48.716;9.124;2023-12-28T10:42:52;10.50;99.90
2489;DHT22;1255;48.716;9.124;2023-12-28T10:45:25;10.50;99.90
2489;DHT22;1255;48.716;9.124;2023-12-28T10:47:58;10.60;99.90
2489;DHT22;1255;48.716;9.124;2023-12-28T10:50:29;10.60;99.90
2489;DHT22;1255;48.716;9.124;2023-12-28T10:53:17;10.70;99.90
2489;DHT22;1255;48.716;9.124;2023-12-28T10:55:50;10.70;99.90
2489;DHT22;1255;48.716;9.124;2023-12-28T10:58:24;10.80;99.90
2489;DHT22;1255;48.716;9.124;2023-12-28T11:00:59;10.80;99.90
2489;DHT22;1255;48.716;9.124;2023-12-28T11:03:32;10.80;99.90
2489;DHT22;1255;48.716;9.124;2023-12-28T11:06:02;10.90;99.90
2489;DHT22;1255;48.716;9.124;2023-12-28T11:08:32;10.90;99.90
2489;DHT22;1255;48.716;9.124;2023-12-28T11:11:01;10.80;99.90
2489;DHT22;1255;48.716;9.124;2023-12-28T11:13:30;10.90;99.90
2489;DHT22;1255;48.716;9.124;2023-12-28T11:16:00;10.90;99.90
2489;DHT22;1255;48.716;9.124;2023-12-28T11:18:28;10.90;99.90
2489;DHT22;1255;48.716;9.124;2023-12-28T11:20:55;10.90;99.90
2489;DHT22;1255;48.716;9.124;2023-12-28T11:23:24;10.90;99.90
2489;DHT22;1255;48.716;9.124;2023-12-28T11:25:51;11.00;99.90
2489;DHT22;1255;48.716;9.124;2023-12-28T11:28:18;11.00;99.90
2489;DHT22;1255;48.716;9.124;2023-12-28T11:30:46;11.10;99.90
2489;DHT22;1255;48.716;9.124;2023-12-28T11:33:15;11.00;99.90
2489;DHT22;1255;48.716;9.124;2023-12-28T11:35:42;11.00;99.90
2489;DHT22;1255;48.716;9.124;2023-12-28T11:38:11;11.00;99.90
2489;DHT22;1255;48.716;9.124;2023-12-28T11:40:42;10.90;99.90
2489;DHT22;1255;48.716;9.124;2023-12-28T11:43:17;10.80;99.90
2489;DHT22;1255;48.716;9.124;2023-12-28T11:45:48;10.80;99.90
2489;DHT22;1255;48.716;9.124;2023-12-28T11:48:24;10.80;99.90
2489;DHT22;1255;48.716;9.124;2023-12-28T11:50:54;10.80;99.90
2489;DHT22;1255;48.716;9.124;2023-12-28T11:53:22;10.80;99.90
2489;DHT22;1255;48.716;9.124;2023-12-28T11:55:50;10.80;99.90
2489;DHT22;1255;48.716;9.124;2023-12-28T11:58:16;10.80;99.90
2489;DHT22;1255;48.716;9.124;2023-12-28T12:00:43;10.80;99.90
2489;DHT22;1255;48.716;9.124;2023-12-28T12:03:10;10.80;99.90
2489;DHT22;1255;48.716;9.124;2023-12-28T12:05:39;10.70;99.90
2489;DHT22;1255;48.716;9.124;2023-12-28T12:08:06;10.80;99.90
2489;DHT22;1255;48.716;9.124;2023-12-28T12:10:35;10.80;99.90
2489;DHT22;1255;48.716;9.124;2023-12-28T12:13:02;10.80;99.90
2489;DHT22;1255;48.716;9.124;2023-12-28T12:15:29;10.90;99.90
2489;DHT22;1255;48.716;9.124;2023-12-28T12:17:56;10.90;99.90
2489;DHT22;1255;48.716;9.124;2023-12-28T12:20:23;10.90;99.90
2489;DHT22;1255;48.716;9.124;2023-12-28T12:22:52;10.80;99.90
2489;DHT22;1255;48.716;9.124;2023-12-28T12:25:18;10.80;99.90
2489;DHT22;1255;48.716;9.124;2023-12-28T12:27:46;10.80;99.90
2489;DHT22;1255;48.716;9.124;2023-12-28T12:30:13;10.80;99.90
2489;DHT22;1255;48.716;9.124;2023-12-28T12:32:40;10.80;99.90
2489;DHT22;1255;48.716;9.124;2023-12-28T12:35:09;10.80;99.90
2489;DHT22;1255;48.716;9.124;2023-12-28T12:37:36;10.80;99.90
2489;DHT22;1255;48.716;9.124;2023-12-28T12:40:05;10.80;99.90
2489;DHT22;1255;48.716;9.124;2023-12-28T12:42:32;10.80;99.90
2489;DHT22;1255;48.716;9.124;2023-12-28T12:44:59;10.90;99.90
2489;DHT22;1255;48.716;9.124;2023-12-28T12:47:32;10.90;99.90
2489;DHT22;1255;48.716;9.124;2023-12-28T12:49:59;10.90;99.90
2489;DHT22;1255;48.716;9.124;2023-12-28T12:52:26;10.90;99.90
2489;DHT22;1255;48.716;9.124;2023-12-28T12:54:54;10.90;99.90
2489;DHT22;1255;48.716;9.124;2023-12-28T12:57:24;10.90;99.90
2489;DHT22;1255;48.716;9.124;2023-12-28T12:59:52;10.90;99.90
2489;DHT22;1255;48.716;9.124;2023-12-28T13:02:19;10.90;99.90
2489;DHT22;1255;48.716;9.124;2023-12-28T13:04:45;10.80;99.90
2489;DHT22;1255;48.716;9.124;2023-12-28T13:07:12;10.80;99.90
2489;DHT22;1255;48.716;9.124;2023-12-28T13:09:39;10.80;99.90
2489;DHT22;1255;48.716;9.124;2023-12-28T13:12:06;10.80;99.90
2489;DHT22;1255;48.716;9.124;2023-12-28T13:14:34;10.70;99.90
2489;DHT22;1255;48.716;9.124;2023-12-28T13:17:01;10.70;99.90
2489;DHT22;1255;48.716;9.124;2023-12-28T13:19:28;10.70;99.90
2489;DHT22;1255;48.716;9.124;2023-12-28T13:21:55;10.60;99.90
2489;DHT22;1255;48.716;9.124;2023-12-28T13:24:22;10.70;99.90
2489;DHT22;1255;48.716;9.124;2023-12-28T13:26:48;10.70;99.90
2489;DHT22;1255;48.716;9.124;2023-12-28T13:29:15;10.70;99.90
2489;DHT22;1255;48.716;9.124;2023-12-28T13:31:44;10.60;99.90
2489;DHT22;1255;48.716;9.124;2023-12-28T13:34:15;10.70;99.90
2489;DHT22;1255;48.716;9.124;2023-12-28T13:36:44;10.70;99.90
2489;DHT22;1255;48.716;9.124;2023-12-28T13:39:10;10.70;99.90
2489;DHT22;1255;48.716;9.124;2023-12-28T13:41:40;10.70;99.90
2489;DHT22;1255;48.716;9.124;2023-12-28T13:44:06;10.70;99.90
2489;DHT22;1255;48.716;9.124;2023-12-28T13:46:37;10.80;99.90
2489;DHT22;1255;48.716;9.124;2023-12-28T13:49:06;10.80;99.90
2489;DHT22;1255;48.716;9.124;2023-12-28T13:51:33;10.70;99.90
2489;DHT22;1255;48.716;9.124;2023-12-28T13:54:00;10.70;99.90
2489;DHT22;1255;48.716;9.124;2023-12-28T13:56:26;10.70;99.90
2489;DHT22;1255;48.716;9.124;2023-12-28T13:58:53;10.70;99.90
2489;DHT22;1255;48.716;9.124;2023-12-28T14:01:20;10.60;99.90
2489;DHT22;1255;48.716;9.124;2023-12-28T14:03:47;10.70;99.90
2489;DHT22;1255;48.716;9.124;2023-12-28T14:06:18;10.70;99.90
2489;DHT22;1255;48.716;9.124;2023-12-28T14:08:45;10.70;99.90
2489;DHT22;1255;48.716;9.124;2023-12-28T14:11:12;10.70;99.90
2489;DHT22;1255;48.716;9.124;2023-12-28T14:13:39;10.70;99.90
2489;DHT22;1255;48.716;9.124;2023-12-28T14:16:06;10.60;99.90
2489;DHT22;1255;48.716;9.124;2023-12-28T14:18:34;10.60;99.90
2489;DHT22;1255;48.716;9.124;2023-12-28T14:21:01;10.60;99.90
2489;DHT22;1255;48.716;9.124;2023-12-28T14:23:31;10.50;99.90
2489;DHT22;1255;48.716;9.124;2023-12-28T14:25:58;10.50;99.90
2489;DHT22;1255;48.716;9.124;2023-12-28T14:28:25;10.40;99.90
2489;DHT22;1255;48.716;9.124;2023-12-28T14:30:52;10.40;99.90
2489;DHT22;1255;48.716;9.124;2023-12-28T14:33:19;10.30;99.90
2489;DHT22;1255;48.716;9.124;2023-12-28T14:35:47;10.30;99.90
2489;DHT22;1255;48.716;9.124;2023-12-28T14:38:14;10.20;99.90
2489;DHT22;1255;48.716;9.124;2023-12-28T14:40:42;10.20;99.90
2489;DHT22;1255;48.716;9.124;2023-12-28T14:43:09;10.20;99.90
2489;DHT22;1255;48.716;9.124;2023-12-28T14:45:36;10.10;99.90
2489;DHT22;1255;48.716;9.124;2023-12-28T14:48:03;10.10;99.90
2489;DHT22;1255;48.716;9.124;2023-12-28T14:50:30;10.10;99.90
2489;DHT22;1255;48.716;9.124;2023-12-28T14:52:57;10.10;99.90
2489;DHT22;1255;48.716;9.124;2023-12-28T14:55:26;10.10;99.90
2489;DHT22;1255;48.716;9.124;2023-12-28T14:58:00;10.00;99.90
2489;DHT22;1255;48.716;9.124;2023-12-28T15:00:33;10.00;99.90
2489;DHT22;1255;48.716;9.124;2023-12-28T15:03:00;10.00;99.90
2489;DHT22;1255;48.716;9.124;2023-12-28T15:05:29;10.00;99.90
2489;DHT22;1255;48.716;9.124;2023-12-28T15:07:57;10.00;99.90
2489;DHT22;1255;48.716;9.124;2023-12-28T15:10:25;10.00;99.90
2489;DHT22;1255;48.716;9.124;2023-12-28T15:12:52;9.90;99.90
2489;DHT22;1255;48.716;9.124;2023-12-28T15:15:22;9.90;99.90
2489;DHT22;1255;48.716;9.124;2023-12-28T15:17:49;9.90;99.90
2489;DHT22;1255;48.716;9.124;2023-12-28T15:20:17;9.90;99.90
2489;DHT22;1255;48.716;9.124;2023-12-28T15:22:45;9.80;99.90
2489;DHT22;1255;48.716;9.124;2023-12-28T15:25:11;9.80;99.90
2489;DHT22;1255;48.716;9.124;2023-12-28T15:27:38;9.80;99.90
2489;DHT22;1255;48.716;9.124;2023-12-28T15:30:07;9.70;99.90
2489;DHT22;1255;48.716;9.124;2023-12-28T15:32:36;9.70;99.90
2489;DHT22;1255;48.716;9.124;2023-12-28T15:35:04;9.70;99.90
2489;DHT22;1255;48.716;9.124;2023-12-28T15:37:32;9.70;99.90
2489;DHT22;1255;48.716;9.124;2023-12-28T15:39:59;9.60;99.90
2489;DHT22;1255;48.716;9.124;2023-12-28T15:42:26;9.60;99.90
2489;DHT22;1255;48.716;9.124;2023-12-28T15:44:52;9.60;99.90
2489;DHT22;1255;48.716;9.124;2023-12-28T15:47:19;9.70;99.90
2489;DHT22;1255;48.716;9.124;2023-12-28T15:49:47;9.60;99.90
2489;DHT22;1255;48.716;9.124;2023-12-28T15:52:14;9.60;99.90
2489;DHT22;1255;48.716;9.124;2023-12-28T15:54:41;9.60;99.90
2489;DHT22;1255;48.716;9.124;2023-12-28T15:57:08;9.60;99.90
2489;DHT22;1255;48.716;9.124;2023-12-28T15:59:34;9.60;99.90
2489;DHT22;1255;48.716;9.124;2023-12-28T16:02:01;9.60;99.90
2489;DHT22;1255;48.716;9.124;2023-12-28T16:04:28;9.50;99.90
2489;DHT22;1255;48.716;9.124;2023-12-28T16:06:56;9.50;99.90
2489;DHT22;1255;48.716;9.124;2023-12-28T16:09:23;9.50;99.90
2489;DHT22;1255;48.716;9.124;2023-12-28T16:11:50;9.50;99.90
2489;DHT22;1255;48.716;9.124;2023-12-28T16:14:17;9.40;99.90
2489;DHT22;1255;48.716;9.124;2023-12-28T16:16:45;9.40;99.90
2489;DHT22;1255;48.716;9.124;2023-12-28T16:19:13;9.40;99.90
2489;DHT22;1255;48.716;9.124;2023-12-28T16:21:40;9.40;99.90
2489;DHT22;1255;48.716;9.124;2023-12-28T16:24:08;9.30;99.90
2489;DHT22;1255;48.716;9.124;2023-12-28T16:26:35;9.30;99.90
2489;DHT22;1255;48.716;9.124;2023-12-28T16:29:02;9.30;99.90
2489;DHT22;1255;48.716;9.124;2023-12-28T16:31:29;9.20;99.90
2489;DHT22;1255;48.716;9.124;2023-12-28T16:33:56;9.20;99.90
2489;DHT22;1255;48.716;9.124;2023-12-28T16:36:22;9.20;99.90
2489;DHT22;1255;48.716;9.124;2023-12-28T16:38:49;9.20;99.90
2489;DHT22;1255;48.716;9.124;2023-12-28T16:41:17;9.20;99.90
2489;DHT22;1255;48.716;9.124;2023-12-28T16:43:44;9.20;99.90
2489;DHT22;1255;48.716;9.124;2023-12-28T16:46:12;9.20;99.90
2489;DHT22;1255;48.716;9.124;2023-12-28T16:48:39;9.20;99.90
2489;DHT22;1255;48.716;9.124;2023-12-28T16:51:06;9.20;99.90
2489;DHT22;1255;48.716;9.124;2023-12-28T16:53:32;9.20;99.90
2489;DHT22;1255;48.716;9.124;2023-12-28T16:55:59;9.20;99.90
2489;DHT22;1255;48.716;9.124;2023-12-28T16:58:28;9.20;99.90
2489;DHT22;1255;48.716;9.124;2023-12-28T17:00:54;9.20;99.90
2489;DHT22;1255;48.716;9.124;2023-12-28T17:03:21;9.20;99.90
2489;DHT22;1255;48.716;9.124;2023-12-28T17:05:48;9.20;99.90
2489;DHT22;1255;48.716;9.124;2023-12-28T17:08:15;9.20;99.90
2489;DHT22;1255;48.716;9.124;2023-12-28T17:10:42;9.20;99.90
2489;DHT22;1255;48.716;9.124;2023-12-28T17:13:10;9.20;99.90
2489;DHT22;1255;48.716;9.124;2023-12-28T17:15:39;9.20;99.90
2489;DHT22;1255;48.716;9.124;2023-12-28T17:18:07;9.20;99.90
2489;DHT22;1255;48.716;9.124;2023-12-28T17:20:35;9.10;99.90
2489;DHT22;1255;48.716;9.124;2023-12-28T17:23:08;9.10;99.90
2489;DHT22;1255;48.716;9.124;2023-12-28T17:25:39;9.00;99.90
2489;DHT22;1255;48.716;9.124;2023-12-28T17:28:12;9.00;99.90
2489;DHT22;1255;48.716;9.124;2023-12-28T17:30:44;9.00;99.90
2489;DHT22;1255;48.716;9.124;2023-12-28T17:33:12;8.90;99.90
2489;DHT22;1255;48.716;9.124;2023-12-28T17:35:40;8.90;99.90
2489;DHT22;1255;48.716;9.124;2023-12-28T17:38:07;8.90;99.90
2489;DHT22;1255;48.716;9.124;2023-12-28T17:40:35;8.90;99.90
2489;DHT22;1255;48.716;9.124;2023-12-28T17:43:07;8.90;99.90
2489;DHT22;1255;48.716;9.124;2023-12-28T17:45:45;8.90;99.90
2489;DHT22;1255;48.716;9.124;2023-12-28T17:48:17;8.90;99.90
2489;DHT22;1255;48.716;9.124;2023-12-28T17:50:46;8.90;99.90
2489;DHT22;1255;48.716;9.124;2023-12-28T17:53:14;8.80;99.90
2489;DHT22;1255;48.716;9.124;2023-12-28T17:55:41;8.80;99.90
2489;DHT22;1255;48.716;9.124;2023-12-28T17:58:08;8.80;99.90
2489;DHT22;1255;48.716;9.124;2023-12-28T18:00:35;8.80;99.90
2489;DHT22;1255;48.716;9.124;2023-12-28T18:03:04;8.80;99.90
2489;DHT22;1255;48.716;9.124;2023-12-28T18:05:31;8.80;99.90
2489;DHT22;1255;48.716;9.124;2023-12-28T18:07:57;8.80;99.90
2489;DHT22;1255;48.716;9.124;2023-12-28T18:10:25;8.80;99.90
2489;DHT22;1255;48.716;9.124;2023-12-28T18:12:52;8.80;99.90
2489;DHT22;1255;48.716;9.124;2023-12-28T18:15:19;8.80;99.90
2489;DHT22;1255;48.716;9.124;2023-12-28T18:17:46;8.70;99.90
2489;DHT22;1255;48.716;9.124;2023-12-28T18:20:14;8.70;99.90
2489;DHT22;1255;48.716;9.124;2023-12-28T18:22:41;8.70;99.90
2489;DHT22;1255;48.716;9.124;2023-12-28T18:25:08;8.70;99.90
2489;DHT22;1255;48.716;9.124;2023-12-28T18:27:35;8.60;99.90
2489;DHT22;1255;48.716;9.124;2023-12-28T18:30:02;8.60;99.90
2489;DHT22;1255;48.716;9.124;2023-12-28T18:32:29;8.70;99.90
2489;DHT22;1255;48.716;9.124;2023-12-28T18:34:55;8.60;99.90
2489;DHT22;1255;48.716;9.124;2023-12-28T18:37:24;8.70;99.90
2489;DHT22;1255;48.716;9.124;2023-12-28T18:39:51;8.70;99.90
2489;DHT22;1255;48.716;9.124;2023-12-28T18:42:19;8.60;99.90
2489;DHT22;1255;48.716;9.124;2023-12-28T18:44:46;8.60;99.90
2489;DHT22;1255;48.716;9.124;2023-12-28T18:47:12;8.60;99.90
2489;DHT22;1255;48.716;9.124;2023-12-28T18:49:39;8.60;99.90
2489;DHT22;1255;48.716;9.124;2023-12-28T18:52:06;8.60;99.90
2489;DHT22;1255;48.716;9.124;2023-12-28T18:54:34;8.60;99.90
2489;DHT22;1255;48.716;9.124;2023-12-28T18:57:01;8.60;99.90
2489;DHT22;1255;48.716;9.124;2023-12-28T18:59:28;8.60;99.90
2489;DHT22;1255;48.716;9.124;2023-12-28T19:01:58;8.60;99.90
2489;DHT22;1255;48.716;9.124;2023-12-28T19:04:24;8.60;99.90
2489;DHT22;1255;48.716;9.124;2023-12-28T19:06:51;8.60;99.90
2489;DHT22;1255;48.716;9.124;2023-12-28T19:09:18;8.70;99.90
2489;DHT22;1255;48.716;9.124;2023-12-28T19:11:46;8.70;99.90
2489;DHT22;1255;48.716;9.124;2023-12-28T19:14:13;8.70;99.90
2489;DHT22;1255;48.716;9.124;2023-12-28T19:16:41;8.70;99.90
2489;DHT22;1255;48.716;9.124;2023-12-28T19:19:08;8.70;99.90
2489;DHT22;1255;48.716;9.124;2023-12-28T19:21:35;8.80;99.90
2489;DHT22;1255;48.716;9.124;2023-12-28T19:24:01;8.80;99.90
2489;DHT22;1255;48.716;9.124;2023-12-28T19:26:28;8.80;99.90
2489;DHT22;1255;48.716;9.124;2023-12-28T19:28:56;8.80;99.90
2489;DHT22;1255;48.716;9.124;2023-12-28T19:31:23;8.80;99.90
2489;DHT22;1255;48.716;9.124;2023-12-28T19:33:50;8.80;99.90
2489;DHT22;1255;48.716;9.124;2023-12-28T19:36:19;8.80;99.90
2489;DHT22;1255;48.716;9.124;2023-12-28T19:38:46;8.80;99.90
2489;DHT22;1255;48.716;9.124;2023-12-28T19:41:13;8.80;99.90
2489;DHT22;1255;48.716;9.124;2023-12-28T19:43:40;8.80;99.90
2489;DHT22;1255;48.716;9.124;2023-12-28T19:46:11;8.80;99.90
2489;DHT22;1255;48.716;9.124;2023-12-28T19:48:37;8.80;99.90
2489;DHT22;1255;48.716;9.124;2023-12-28T19:51:04;8.80;99.90
2489;DHT22;1255;48.716;9.124;2023-12-28T19:53:31;8.80;99.90
2489;DHT22;1255;48.716;9.124;2023-12-28T19:55:58;8.70;99.90
2489;DHT22;1255;48.716;9.124;2023-12-28T19:58:25;8.80;99.90
2489;DHT22;1255;48.716;9.124;2023-12-28T20:00:51;8.70;99.90
2489;DHT22;1255;48.716;9.124;2023-12-28T20:03:19;8.70;99.90
2489;DHT22;1255;48.716;9.124;2023-12-28T20:05:46;8.70;99.90
2489;DHT22;1255;48.716;9.124;2023-12-28T20:08:13;8.70;99.90
2489;DHT22;1255;48.716;9.124;2023-12-28T20:10:40;8.80;99.90
2489;DHT22;1255;48.716;9.124;2023-12-28T20:13:07;8.70;99.90
2489;DHT22;1255;48.716;9.124;2023-12-28T20:15:42;8.70;99.90
2489;DHT22;1255;48.716;9.124;2023-12-28T20:18:10;8.70;99.90
2489;DHT22;1255;48.716;9.124;2023-12-28T20:20:38;8.70;99.90
2489;DHT22;1255;48.716;9.124;2023-12-28T20:23:05;8.70;99.90
2489;DHT22;1255;48.716;9.124;2023-12-28T20:25:32;8.60;99.90
2489;DHT22;1255;48.716;9.124;2023-12-28T20:27:59;8.60;99.90
2489;DHT22;1255;48.716;9.124;2023-12-28T20:30:26;8.60;99.90
2489;DHT22;1255;48.716;9.124;2023-12-28T20:32:55;8.60;99.90